This is the latest recevied weather packets stored in our database for station/object SALIDA. If no packets are shown the sender has not sent any weather packets the latest 10 day(s).
| Time | Temp. | Humidity | Pressure | Rain* | Wind** | Luminosity | Snow |
|---|---|---|---|---|---|---|---|
| 1777950987 | 10.56° C | 49% | 999.8 hPa | 0 mm | - | - | - |
| 1777950087 | 11.11° C | 47% | 999.4 hPa | 0 mm | - | - | - |
| 1777949222 | 11.67° C | 45% | 999.3 hPa | 0 mm | - | - | - |
| 1777949187 | 11.67° C | 45% | 999.3 hPa | 0 mm | - | - | - |
| 1777948287 | 12.22° C | 44% | 998.8 hPa | 0 mm | - | - | - |
| 1777947387 | 12.78° C | 43% | 998.8 hPa | 0 mm | - | - | - |
| 1777946487 | 12.78° C | 43% | 998.5 hPa | 0 mm | - | - | - |
| 1777945587 | 13.33° C | 42% | 998.2 hPa | 0 mm | - | - | - |
| 1777944687 | 13.89° C | 42% | 998.3 hPa | 0 mm | - | - | - |
| 1777943787 | 13.89° C | 42% | 998.3 hPa | 0 mm | - | - | - |
| 1777942887 | 13.89° C | 41% | 998.3 hPa | 0 mm | - | - | - |
| 1777941987 | 14.44° C | 39% | 998.3 hPa | 0 mm | - | - | - |
| 1777941087 | 14.44° C | 40% | 998.2 hPa | 0 mm | - | - | - |
| 1777940187 | 14.44° C | 41% | 998.3 hPa | 0 mm | - | - | - |
| 1777939287 | 14.44° C | 42% | 998.5 hPa | 0 mm | - | - | - |
| 1777938387 | 14.44° C | 43% | 998.8 hPa | 0 mm | - | - | - |
| 1777937487 | 14.44° C | 43% | 998.7 hPa | 0 mm | - | - | - |
| 1777936587 | 14.44° C | 42% | 998.5 hPa | 0 mm | - | - | - |
| 1777935687 | 14.44° C | 41% | 998.4 hPa | 0 mm | - | - | - |
| 1777934787 | 15° C | 38% | 998 hPa | 0 mm | - | - | - |
| 1777933887 | 15° C | 38% | 997.9 hPa | 0 mm | - | - | - |
| 1777932987 | 15° C | 42% | 998.2 hPa | 0 mm | - | - | - |
| 1777932087 | 14.44° C | 44% | 998.3 hPa | 0 mm | - | - | - |
| 1777931187 | 13.89° C | 45% | 998.8 hPa | 0 mm | - | - | - |
| 1777930287 | 15.56° C | 39% | 998.9 hPa | 0 mm | - | - | - |
* Rain latest hour (hover to see other rain measurements)
** Current wind speed in m/s (hover to see current wind gust speed)